Time;durP1;ratioP1;P1;durP2;ratioP2;P2;SDS_P1;SDS_P2;PMS_P1;PMS_P2;Temp;Humidity;BMP_temperature;BMP_pressure;BME280_temperature;BME280_humidity;BME280_pressure;Samples;Min_cycle;Max_cycle;Signal;HPM_P1;HPM_P2
2021/09/08 00:01:17;;;;;;;;;;;15.60;95.00;;;;;;5087941;28;20005;-80
2021/09/08 00:03:43;;;;;;;;;;;15.60;95.20;;;;;;5089811;28;19957;-79
2021/09/08 00:06:09;;;;;;;;;;;15.60;95.20;;;;;;5091607;28;19908;-80
2021/09/08 00:08:34;;;;;;;;;;;15.70;95.30;;;;;;5091428;28;19983;-80
2021/09/08 00:11:00;;;;;;;;;;;15.60;95.30;;;;;;5112596;22;19924;-82
2021/09/08 00:13:25;;;;;;;;;;;15.70;95.30;;;;;;5090786;28;19973;-82
2021/09/08 00:15:51;;;;;;;;;;;15.60;95.30;;;;;;5090971;28;19966;-82
2021/09/08 00:18:16;;;;;;;;;;;15.60;95.40;;;;;;5088768;28;19916;-82
2021/09/08 00:20:42;;;;;;;;;;;15.60;95.30;;;;;;5088044;28;20007;-82
2021/09/08 00:23:08;;;;;;;;;;;15.60;95.50;;;;;;5080161;28;19912;-82
2021/09/08 00:25:33;;;;;;;;;;;15.60;95.50;;;;;;5081575;28;19961;-82
2021/09/08 00:27:58;;;;;;;;;;;15.60;95.60;;;;;;5080312;28;19922;-83
2021/09/08 00:30:24;;;;;;;;;;;15.60;96.00;;;;;;5078368;28;20337;-82
2021/09/08 00:32:49;;;;;;;;;;;15.50;95.70;;;;;;5076971;28;20371;-82
2021/09/08 00:35:15;;;;;;;;;;;15.50;95.80;;;;;;5077294;28;20378;-82
2021/09/08 00:37:41;;;;;;;;;;;15.50;96.00;;;;;;5079779;28;19966;-82
2021/09/08 00:40:07;;;;;;;;;;;15.40;95.90;;;;;;5079213;28;19916;-82
2021/09/08 00:42:33;;;;;;;;;;;15.40;96.00;;;;;;5078631;28;20002;-82
2021/09/08 00:44:58;;;;;;;;;;;15.40;96.10;;;;;;5078442;28;20011;-83
2021/09/08 00:47:25;;;;;;;;;;;15.40;96.40;;;;;;5081082;28;19912;-82
2021/09/08 00:49:50;;;;;;;;;;;15.30;96.50;;;;;;5077391;28;19913;-83
2021/09/08 00:52:16;;;;;;;;;;;15.30;96.50;;;;;;5076014;28;20325;-83
2021/09/08 00:54:47;;;;;;;;;;;15.30;96.60;;;;;;5076522;28;20343;-82
2021/09/08 00:57:13;;;;;;;;;;;15.20;96.70;;;;;;5079516;28;20500;-82
2021/09/08 00:59:40;;;;;;;;;;;15.30;96.70;;;;;;5076911;28;20007;-82
2021/09/08 01:02:05;;;;;;;;;;;15.20;96.40;;;;;;5079437;28;19970;-83
2021/09/08 01:04:34;;;;;;;;;;;15.30;96.40;;;;;;5076271;28;19917;-82
2021/09/08 01:06:59;;;;;;;;;;;15.20;96.40;;;;;;5091296;28;19915;-82
2021/09/08 01:09:25;;;;;;;;;;;15.20;96.40;;;;;;5077008;28;19912;-82
2021/09/08 01:11:50;;;;;;;;;;;15.20;96.40;;;;;;5082562;28;19916;-82
2021/09/08 01:14:16;;;;;;;;;;;15.20;96.30;;;;;;5076635;28;20035;-83
2021/09/08 01:16:41;;;;;;;;;;;15.10;96.20;;;;;;5082860;28;20357;-82
2021/09/08 01:19:07;;;;;;;;;;;15.10;96.30;;;;;;5076345;28;20332;-82
2021/09/08 01:21:32;;;;;;;;;;;15.10;96.20;;;;;;5077129;28;19919;-83
2021/09/08 01:24:04;;;;;;;;;;;15.10;96.40;;;;;;5076195;28;19920;-82
2021/09/08 01:26:30;;;;;;;;;;;15.00;96.30;;;;;;5071005;28;19915;-82
2021/09/08 01:28:55;;;;;;;;;;;15.00;96.40;;;;;;5076243;28;19920;-83
2021/09/08 01:31:21;;;;;;;;;;;15.00;96.30;;;;;;5075822;28;19908;-82
2021/09/08 01:33:46;;;;;;;;;;;15.00;96.50;;;;;;5080613;28;19912;-82
2021/09/08 01:36:11;;;;;;;;;;;15.00;96.40;;;;;;5079003;28;19928;-82
2021/09/08 01:38:37;;;;;;;;;;;15.00;96.40;;;;;;5081293;28;19931;-82
2021/09/08 01:41:02;;;;;;;;;;;15.00;96.40;;;;;;5083315;28;19987;-82
2021/09/08 01:43:28;;;;;;;;;;;15.00;96.50;;;;;;5078797;28;19912;-82
2021/09/08 01:45:53;;;;;;;;;;;15.00;96.50;;;;;;5076227;28;19966;-82
2021/09/08 01:48:19;;;;;;;;;;;14.90;96.50;;;;;;5094618;28;19912;-82
2021/09/08 01:50:44;;;;;;;;;;;14.90;96.60;;;;;;5078896;28;19924;-82
2021/09/08 01:53:10;;;;;;;;;;;14.90;96.50;;;;;;5079683;28;19924;-82
2021/09/08 01:55:35;;;;;;;;;;;14.90;96.50;;;;;;5078717;28;20016;-82
2021/09/08 01:58:01;;;;;;;;;;;14.90;96.60;;;;;;5073574;28;19912;-82
2021/09/08 02:00:26;;;;;;;;;;;14.90;96.70;;;;;;5081642;28;19955;-82
2021/09/08 02:02:52;;;;;;;;;;;14.80;96.60;;;;;;5084690;28;19966;-82
2021/09/08 02:05:17;;;;;;;;;;;14.90;96.60;;;;;;5078149;28;19931;-82
2021/09/08 02:07:43;;;;;;;;;;;14.80;96.60;;;;;;5072127;28;20475;-82
2021/09/08 02:10:09;;;;;;;;;;;14.80;96.70;;;;;;5080256;28;20442;-82
2021/09/08 02:12:34;;;;;;;;;;;14.80;96.60;;;;;;5075033;28;19916;-82
2021/09/08 02:15:00;;;;;;;;;;;14.70;96.80;;;;;;5073250;28;19965;-82
2021/09/08 02:17:25;;;;;;;;;;;14.70;97.00;;;;;;5065139;28;19991;-82
2021/09/08 02:19:51;;;;;;;;;;;14.70;97.10;;;;;;5079954;28;19912;-82
2021/09/08 02:22:16;;;;;;;;;;;14.60;97.10;;;;;;5074157;28;19928;-82
2021/09/08 02:24:42;;;;;;;;;;;14.60;97.10;;;;;;5077953;28;20432;-82
2021/09/08 02:27:07;;;;;;;;;;;14.60;97.20;;;;;;5081370;28;20483;-82
2021/09/08 02:29:33;;;;;;;;;;;14.60;97.30;;;;;;5065917;28;19913;-82
2021/09/08 02:31:58;;;;;;;;;;;14.60;97.20;;;;;;5076786;28;19996;-82
2021/09/08 02:34:24;;;;;;;;;;;14.60;97.30;;;;;;5062105;28;20318;-82
2021/09/08 02:36:49;;;;;;;;;;;14.50;97.20;;;;;;5078989;28;19920;-77
2021/09/08 02:39:14;;;;;;;;;;;14.70;97.50;;;;;;5077238;28;19923;-77
2021/09/08 02:41:40;;;;;;;;;;;15.00;97.60;;;;;;5076976;28;19912;-77
2021/09/08 02:44:05;;;;;;;;;;;15.30;97.40;;;;;;5077913;28;19927;-77
2021/09/08 02:46:31;;;;;;;;;;;15.60;97.10;;;;;;5077954;28;19919;-77
2021/09/08 02:48:56;;;;;;;;;;;15.60;96.50;;;;;;5075099;28;19926;-77
2021/09/08 02:51:21;;;;;;;;;;;15.50;96.10;;;;;;5078445;28;20309;-77
2021/09/08 02:53:47;;;;;;;;;;;15.30;96.20;;;;;;5078893;28;20382;-77
2021/09/08 02:56:12;;;;;;;;;;;15.40;96.40;;;;;;5072488;28;20444;-77
2021/09/08 02:58:38;;;;;;;;;;;15.40;96.20;;;;;;5078255;28;19915;-77
2021/09/08 03:01:03;;;;;;;;;;;15.40;96.10;;;;;;5075623;28;19956;-77
2021/09/08 03:03:29;;;;;;;;;;;15.30;96.10;;;;;;5076013;28;19986;-77
2021/09/08 03:05:54;;;;;;;;;;;15.30;96.10;;;;;;5076116;28;19912;-77
2021/09/08 03:08:20;;;;;;;;;;;15.30;96.00;;;;;;5076827;28;20396;-77
2021/09/08 03:10:46;;;;;;;;;;;15.30;96.00;;;;;;5073465;28;19919;-77
2021/09/08 03:13:12;;;;;;;;;;;15.30;95.90;;;;;;5078145;28;19920;-77
2021/09/08 03:15:38;;;;;;;;;;;15.30;95.80;;;;;;5074976;28;20267;-77
2021/09/08 03:18:04;;;;;;;;;;;15.20;95.80;;;;;;5076919;28;19919;-77
2021/09/08 03:20:30;;;;;;;;;;;15.00;95.90;;;;;;5078376;28;19912;-77
2021/09/08 03:22:55;;;;;;;;;;;14.90;96.00;;;;;;5071216;28;19958;-78
2021/09/08 03:25:21;;;;;;;;;;;14.80;95.90;;;;;;5070619;28;20004;-77
2021/09/08 03:27:46;;;;;;;;;;;14.70;95.90;;;;;;5079833;28;20011;-77
2021/09/08 03:30:12;;;;;;;;;;;14.70;96.00;;;;;;5081484;28;19912;-77
2021/09/08 03:32:37;;;;;;;;;;;14.60;96.00;;;;;;5077579;28;19962;-78
2021/09/08 03:35:03;;;;;;;;;;;14.60;96.20;;;;;;5081875;28;20389;-77
2021/09/08 03:37:28;;;;;;;;;;;14.50;96.20;;;;;;5079748;28;19965;-77
2021/09/08 03:39:56;;;;;;;;;;;14.70;96.20;;;;;;5082243;28;19912;-77
2021/09/08 03:42:21;;;;;;;;;;;14.90;96.20;;;;;;5080094;28;19933;-77
2021/09/08 03:44:47;;;;;;;;;;;15.10;96.10;;;;;;5077932;28;19998;-77
2021/09/08 03:47:12;;;;;;;;;;;15.20;95.90;;;;;;5082263;28;19913;-77
2021/09/08 03:49:38;;;;;;;;;;;15.20;96.20;;;;;;5082783;28;19913;-77
2021/09/08 03:52:03;;;;;;;;;;;15.40;96.00;;;;;;5082293;28;19973;-77
2021/09/08 03:54:29;;;;;;;;;;;15.40;96.00;;;;;;5077958;28;19923;-77
2021/09/08 03:56:54;;;;;;;;;;;15.50;96.00;;;;;;5078172;28;19916;-77
2021/09/08 03:59:21;;;;;;;;;;;15.40;95.60;;;;;;5080484;28;19961;-77
2021/09/08 04:01:47;;;;;;;;;;;15.20;95.80;;;;;;5095358;28;20437;-77
2021/09/08 04:04:12;;;;;;;;;;;15.10;95.90;;;;;;5079628;28;19939;-77
2021/09/08 04:06:38;;;;;;;;;;;15.30;96.00;;;;;;5078047;28;19912;-77
2021/09/08 04:09:03;;;;;;;;;;;15.30;95.90;;;;;;5081085;28;19959;-81
2021/09/08 04:11:29;;;;;;;;;;;15.20;95.80;;;;;;5073593;28;19944;-82
2021/09/08 04:13:54;;;;;;;;;;;15.10;96.00;;;;;;5077961;28;20004;-81
2021/09/08 04:16:20;;;;;;;;;;;14.90;96.10;;;;;;5069326;28;20407;-81
2021/09/08 04:18:45;;;;;;;;;;;14.70;96.20;;;;;;5069791;28;19927;-80
2021/09/08 04:21:10;;;;;;;;;;;14.50;96.30;;;;;;5079134;28;19916;-81
2021/09/08 04:23:36;;;;;;;;;;;14.40;96.60;;;;;;5080813;28;19912;-79
2021/09/08 04:26:01;;;;;;;;;;;14.30;96.70;;;;;;5077444;28;19908;-79
2021/09/08 04:28:27;;;;;;;;;;;14.20;96.70;;;;;;5081664;28;19920;-81
2021/09/08 04:30:52;;;;;;;;;;;14.10;96.70;;;;;;5079116;28;20306;-80
2021/09/08 04:33:17;;;;;;;;;;;14.10;96.80;;;;;;5077212;28;20374;-82
2021/09/08 04:35:43;;;;;;;;;;;14.10;96.90;;;;;;5076141;28;19919;-83
2021/09/08 04:38:08;;;;;;;;;;;14.00;96.90;;;;;;5077715;28;19912;-84
2021/09/08 04:40:34;;;;;;;;;;;14.00;97.10;;;;;;5077945;28;19924;-83
2021/09/08 04:43:01;;;;;;;;;;;13.90;97.20;;;;;;5079285;28;19909;-82
2021/09/08 04:45:27;;;;;;;;;;;13.90;97.20;;;;;;5078674;28;20003;-82
2021/09/08 04:47:52;;;;;;;;;;;13.90;97.30;;;;;;5080592;28;20003;-83
2021/09/08 04:50:18;;;;;;;;;;;13.90;97.30;;;;;;5077430;28;20457;-82
2021/09/08 04:52:43;;;;;;;;;;;13.90;97.30;;;;;;5079795;28;20401;-81
2021/09/08 04:55:10;;;;;;;;;;;13.90;97.40;;;;;;5078681;28;20427;-82
2021/09/08 04:57:35;;;;;;;;;;;13.90;97.40;;;;;;5077881;28;19916;-81
2021/09/08 05:00:00;;;;;;;;;;;13.90;97.40;;;;;;5076193;28;19924;-81
2021/09/08 05:02:26;;;;;;;;;;;13.90;97.50;;;;;;5079433;28;19916;-81
2021/09/08 05:04:51;;;;;;;;;;;13.90;97.60;;;;;;5077953;28;19924;-81
2021/09/08 05:07:17;;;;;;;;;;;13.90;97.70;;;;;;5079712;28;19934;-82
2021/09/08 05:09:42;;;;;;;;;;;13.90;97.60;;;;;;5078545;28;20011;-82
2021/09/08 05:12:09;;;;;;;;;;;14.00;97.60;;;;;;5076298;28;20343;-84
2021/09/08 05:14:34;;;;;;;;;;;14.10;97.60;;;;;;5075452;28;20136;-82
2021/09/08 05:17:05;;;;;;;;;;;14.10;97.60;;;;;;5076752;28;19912;-82
2021/09/08 05:19:30;;;;;;;;;;;14.20;97.50;;;;;;5080469;28;20295;-83
2021/09/08 05:21:56;;;;;;;;;;;14.20;97.50;;;;;;5077334;28;19908;-83
2021/09/08 05:24:21;;;;;;;;;;;14.30;97.50;;;;;;5078121;28;19916;-82
2021/09/08 05:26:47;;;;;;;;;;;14.30;97.40;;;;;;5076388;28;19923;-82
2021/09/08 05:29:14;;;;;;;;;;;14.40;97.30;;;;;;5073881;28;19913;-82
2021/09/08 05:31:39;;;;;;;;;;;14.40;97.30;;;;;;5092470;28;19959;-82
2021/09/08 05:34:04;;;;;;;;;;;14.40;97.20;;;;;;5077631;28;20276;-83
2021/09/08 05:36:30;;;;;;;;;;;14.40;97.20;;;;;;5093203;28;20004;-83
2021/09/08 05:38:55;;;;;;;;;;;14.40;97.20;;;;;;5077676;28;20193;-82
2021/09/08 05:41:21;;;;;;;;;;;14.50;97.30;;;;;;5079283;28;20300;-82
2021/09/08 05:43:46;;;;;;;;;;;14.50;97.30;;;;;;5076931;28;19920;-82
2021/09/08 05:46:12;;;;;;;;;;;14.50;97.30;;;;;;5077675;28;19909;-83
2021/09/08 05:48:37;;;;;;;;;;;14.50;97.20;;;;;;5075441;28;20339;-82
2021/09/08 05:51:03;;;;;;;;;;;14.60;97.20;;;;;;5074453;28;20006;-82
2021/09/08 05:53:28;;;;;;;;;;;14.60;97.20;;;;;;5077342;28;19931;-83
2021/09/08 05:55:55;;;;;;;;;;;14.70;97.30;;;;;;5076318;28;19913;-82
2021/09/08 05:58:20;;;;;;;;;;;14.70;97.20;;;;;;5079145;28;19919;-81
2021/09/08 06:00:46;;;;;;;;;;;14.70;97.30;;;;;;5075141;28;19965;-82
2021/09/08 06:03:11;;;;;;;;;;;14.80;97.20;;;;;;5078190;28;19974;-82
2021/09/08 06:05:37;;;;;;;;;;;14.80;97.10;;;;;;5093484;28;19965;-82
2021/09/08 06:08:02;;;;;;;;;;;14.80;97.00;;;;;;5079821;28;19981;-82
2021/09/08 06:10:28;;;;;;;;;;;14.80;97.00;;;;;;5097495;22;20393;-77
2021/09/08 06:12:53;;;;;;;;;;;14.80;97.00;;;;;;5082126;28;19927;-78
2021/09/08 06:15:20;;;;;;;;;;;14.90;97.00;;;;;;5075163;28;19927;-77
2021/09/08 06:17:46;;;;;;;;;;;15.00;97.00;;;;;;5079195;28;20263;-78
2021/09/08 06:20:11;;;;;;;;;;;15.10;97.00;;;;;;5085226;28;19916;-78
2021/09/08 06:22:37;;;;;;;;;;;15.20;96.90;;;;;;5074890;28;19920;-78
2021/09/08 06:25:03;;;;;;;;;;;15.30;97.10;;;;;;5078498;28;20331;-78
2021/09/08 06:27:28;;;;;;;;;;;15.30;96.80;;;;;;5077499;28;20403;-79
2021/09/08 06:29:54;;;;;;;;;;;15.40;96.80;;;;;;5077388;28;20011;-82
2021/09/08 06:32:19;;;;;;;;;;;15.50;96.90;;;;;;5074074;28;19920;-80
2021/09/08 06:34:45;;;;;;;;;;;15.60;96.60;;;;;;5075951;28;19931;-79
2021/09/08 06:37:11;;;;;;;;;;;15.60;96.60;;;;;;5092841;28;19931;-82
2021/09/08 06:39:36;;;;;;;;;;;15.70;96.50;;;;;;5076397;28;20301;-82
2021/09/08 06:42:02;;;;;;;;;;;15.80;96.30;;;;;;5075371;28;19913;-81
2021/09/08 06:44:27;;;;;;;;;;;15.90;96.30;;;;;;5072341;28;20000;-83
2021/09/08 06:46:53;;;;;;;;;;;15.90;96.20;;;;;;5079953;28;20456;-82
2021/09/08 06:49:19;;;;;;;;;;;16.00;96.20;;;;;;5076015;28;19948;-80
2021/09/08 06:51:45;;;;;;;;;;;16.00;96.10;;;;;;5092119;28;19916;-80
2021/09/08 06:54:10;;;;;;;;;;;16.10;96.00;;;;;;5075115;28;19928;-78
2021/09/08 06:56:36;;;;;;;;;;;16.20;96.00;;;;;;5075324;28;19966;-79
2021/09/08 06:59:01;;;;;;;;;;;16.30;96.00;;;;;;5075642;28;19909;-80
2021/09/08 07:01:27;;;;;;;;;;;16.40;96.10;;;;;;5077323;28;19908;-80
2021/09/08 07:03:52;;;;;;;;;;;16.60;95.90;;;;;;5076075;28;19916;-80
2021/09/08 07:06:20;;;;;;;;;;;16.70;95.80;;;;;;5073077;28;19932;-81
2021/09/08 07:08:46;;;;;;;;;;;16.80;95.70;;;;;;5074581;28;19941;-82
2021/09/08 07:11:11;;;;;;;;;;;16.90;95.60;;;;;;5074818;28;19925;-80
2021/09/08 07:13:37;;;;;;;;;;;17.00;95.60;;;;;;5075200;28;19922;-80
2021/09/08 07:16:02;;;;;;;;;;;17.10;95.50;;;;;;5070675;28;19920;-78
2021/09/08 07:18:28;;;;;;;;;;;17.20;95.50;;;;;;5075048;28;19924;-77
2021/09/08 07:20:53;;;;;;;;;;;17.40;95.40;;;;;;5080021;28;20011;-77
2021/09/08 07:23:19;;;;;;;;;;;17.50;95.30;;;;;;5077722;28;20424;-78
2021/09/08 07:25:44;;;;;;;;;;;17.60;95.20;;;;;;5075841;28;19927;-78
2021/09/08 07:28:09;;;;;;;;;;;17.80;95.10;;;;;;5073711;28;19912;-80
2021/09/08 07:30:35;;;;;;;;;;;17.90;94.90;;;;;;5074451;28;19909;-79
2021/09/08 07:33:00;;;;;;;;;;;18.10;94.70;;;;;;5077227;28;19916;-79
2021/09/08 07:35:26;;;;;;;;;;;18.20;94.50;;;;;;5074420;28;20117;-79
2021/09/08 07:37:51;;;;;;;;;;;18.30;94.40;;;;;;5077105;28;19938;-75
2021/09/08 07:40:18;;;;;;;;;;;18.40;94.20;;;;;;5072848;28;20383;-76
2021/09/08 07:42:44;;;;;;;;;;;18.50;94.20;;;;;;5075672;28;19912;-76
2021/09/08 07:45:10;;;;;;;;;;;18.60;93.90;;;;;;5074597;28;19923;-77
2021/09/08 07:47:35;;;;;;;;;;;18.70;94.00;;;;;;5076150;28;19920;-77
2021/09/08 07:50:01;;;;;;;;;;;18.80;93.90;;;;;;5073649;28;19916;-78
2021/09/08 07:52:26;;;;;;;;;;;19.00;93.60;;;;;;5076097;28;20002;-76
2021/09/08 07:54:51;;;;;;;;;;;19.20;93.30;;;;;;5077376;28;19927;-76
2021/09/08 07:57:17;;;;;;;;;;;19.30;93.00;;;;;;5072925;28;20011;-77
2021/09/08 07:59:42;;;;;;;;;;;19.50;93.00;;;;;;5074814;28;19920;-76
2021/09/08 08:02:08;;;;;;;;;;;19.50;92.90;;;;;;5075021;28;20354;-79
2021/09/08 08:04:33;;;;;;;;;;;19.60;92.80;;;;;;5073699;28;20448;-82
2021/09/08 08:06:59;;;;;;;;;;;19.70;92.60;;;;;;5073577;28;19916;-76
2021/09/08 08:09:24;;;;;;;;;;;19.70;92.10;;;;;;5077922;28;19963;-76
2021/09/08 08:11:49;;;;;;;;;;;19.80;92.00;;;;;;5078560;28;19928;-77
2021/09/08 08:14:16;;;;;;;;;;;19.90;92.10;;;;;;5077884;28;19959;-78
2021/09/08 08:16:42;;;;;;;;;;;19.90;92.00;;;;;;5080090;28;20034;-77
2021/09/08 08:19:07;;;;;;;;;;;20.00;91.80;;;;;;5079672;28;20057;-77
2021/09/08 08:21:34;;;;;;;;;;;20.10;91.70;;;;;;5080389;28;19916;-79
2021/09/08 08:24:00;;;;;;;;;;;20.20;91.10;;;;;;5076601;28;20393;-78
2021/09/08 08:26:25;;;;;;;;;;;20.30;91.20;;;;;;5079766;28;19920;-78
2021/09/08 08:28:51;;;;;;;;;;;20.50;91.00;;;;;;5075353;28;19955;-78
2021/09/08 08:31:16;;;;;;;;;;;20.60;91.00;;;;;;5080673;28;20287;-78
2021/09/08 08:33:43;;;;;;;;;;;20.70;90.30;;;;;;5080399;28;20073;-80
2021/09/08 08:36:09;;;;;;;;;;;20.80;90.10;;;;;;5077350;28;19916;-78
2021/09/08 08:38:34;;;;;;;;;;;20.90;88.40;;;;;;5080497;28;19939;-78
2021/09/08 08:41:00;;;;;;;;;;;20.90;87.50;;;;;;5079643;28;19912;-78
2021/09/08 08:43:25;;;;;;;;;;;21.00;87.50;;;;;;5079073;28;19913;-77
2021/09/08 08:45:51;;;;;;;;;;;21.00;86.80;;;;;;5074093;28;19989;-77
2021/09/08 08:48:16;;;;;;;;;;;21.00;86.50;;;;;;5077948;28;19951;-76
2021/09/08 08:50:42;;;;;;;;;;;21.10;86.90;;;;;;5076030;28;19960;-76
2021/09/08 08:53:08;;;;;;;;;;;21.10;87.00;;;;;;5078528;28;20020;-76
2021/09/08 08:55:33;;;;;;;;;;;21.20;87.20;;;;;;5077973;28;20015;-78
2021/09/08 08:57:59;;;;;;;;;;;21.30;87.10;;;;;;5077145;28;20390;-76
2021/09/08 09:00:25;;;;;;;;;;;21.50;86.70;;;;;;5077401;28;19958;-76
2021/09/08 09:02:51;;;;;;;;;;;21.70;86.40;;;;;;5075112;28;20018;-76
2021/09/08 09:05:27;;;;;;;;;;;21.80;85.50;;;;;;5093723;28;20183;-78
2021/09/08 09:07:54;;;;;;;;;;;21.90;83.60;;;;;;5076871;28;19924;-79
2021/09/08 09:10:21;;;;;;;;;;;21.90;83.90;;;;;;5093085;28;20100;-78
2021/09/08 09:12:48;;;;;;;;;;;22.10;84.50;;;;;;5061323;28;19926;-79
2021/09/08 09:15:15;;;;;;;;;;;22.20;82.80;;;;;;5061727;28;19924;-79
2021/09/08 09:17:41;;;;;;;;;;;22.30;81.90;;;;;;5077240;28;19912;-79
2021/09/08 09:20:09;;;;;;;;;;;22.40;81.80;;;;;;5074161;28;19916;-79
2021/09/08 09:22:36;;;;;;;;;;;22.50;80.90;;;;;;5077712;28;19908;-78
2021/09/08 09:25:01;;;;;;;;;;;22.50;80.50;;;;;;5074336;28;20037;-79
2021/09/08 09:27:27;;;;;;;;;;;22.60;80.80;;;;;;5074021;28;20003;-79
2021/09/08 09:30:01;;;;;;;;;;;22.60;81.00;;;;;;5077207;28;20275;-77
2021/09/08 09:32:33;;;;;;;;;;;22.70;80.40;;;;;;5076008;28;20020;-80
2021/09/08 09:34:58;;;;;;;;;;;22.80;79.10;;;;;;5076848;28;20010;-80
2021/09/08 09:37:24;;;;;;;;;;;23.00;79.70;;;;;;5078457;28;19917;-79
2021/09/08 09:39:49;;;;;;;;;;;23.10;79.50;;;;;;5079441;28;19916;-79
2021/09/08 09:42:16;;;;;;;;;;;23.10;78.70;;;;;;5078649;28;20351;-78
2021/09/08 09:44:43;;;;;;;;;;;23.10;77.90;;;;;;5075378;28;19919;-77
2021/09/08 09:47:08;;;;;;;;;;;23.20;78.50;;;;;;5077433;28;20271;-78
2021/09/08 09:49:35;;;;;;;;;;;23.30;75.40;;;;;;5076221;28;19912;-77
2021/09/08 09:52:10;;;;;;;;;;;23.30;76.00;;;;;;5078610;28;20014;-77
2021/09/08 09:54:36;;;;;;;;;;;23.30;75.50;;;;;;5071790;28;20339;-79
2021/09/08 09:57:03;;;;;;;;;;;23.40;76.00;;;;;;5077117;28;19938;-82
2021/09/08 09:59:28;;;;;;;;;;;23.40;75.80;;;;;;5078284;28;20109;-80
2021/09/08 10:01:54;;;;;;;;;;;23.40;75.10;;;;;;5061899;28;20251;-80
2021/09/08 10:04:20;;;;;;;;;;;23.50;75.70;;;;;;5077156;28;20514;-80
2021/09/08 10:06:46;;;;;;;;;;;23.60;73.70;;;;;;5078431;28;19913;-80
2021/09/08 10:09:15;;;;;;;;;;;23.60;74.30;;;;;;5078727;28;20003;-79
2021/09/08 10:11:44;;;;;;;;;;;23.70;73.10;;;;;;5076026;28;19936;-79
2021/09/08 10:14:12;;;;;;;;;;;23.70;73.10;;;;;;5077323;28;19916;-80
2021/09/08 10:16:37;;;;;;;;;;;23.70;74.00;;;;;;5076283;28;19912;-79
2021/09/08 10:19:06;;;;;;;;;;;23.80;73.20;;;;;;5076272;28;19923;-79
2021/09/08 10:21:31;;;;;;;;;;;23.90;73.10;;;;;;5079186;28;19909;-79
2021/09/08 10:23:59;;;;;;;;;;;23.90;73.10;;;;;;5077663;28;19913;-79
2021/09/08 10:26:29;;;;;;;;;;;24.00;71.40;;;;;;5078744;28;19977;-79
2021/09/08 10:28:57;;;;;;;;;;;23.90;71.50;;;;;;5077352;28;19916;-77
2021/09/08 10:31:23;;;;;;;;;;;23.90;71.30;;;;;;5073419;28;20015;-73
2021/09/08 10:33:54;;;;;;;;;;;24.00;71.70;;;;;;5071027;28;19927;-73
2021/09/08 10:36:19;;;;;;;;;;;24.10;71.60;;;;;;5074690;28;19912;-73
2021/09/08 10:38:46;;;;;;;;;;;24.30;71.60;;;;;;5078997;28;20877;-73
2021/09/08 10:41:12;;;;;;;;;;;24.40;71.70;;;;;;5078227;28;19908;-74
2021/09/08 10:43:38;;;;;;;;;;;24.30;70.30;;;;;;5077715;28;20370;-72
2021/09/08 10:46:04;;;;;;;;;;;24.30;70.30;;;;;;5091614;28;19916;-75
2021/09/08 10:48:34;;;;;;;;;;;24.40;67.40;;;;;;5058642;28;20321;-75
2021/09/08 10:51:00;;;;;;;;;;;24.30;68.90;;;;;;5072175;28;19920;-75
2021/09/08 10:53:27;;;;;;;;;;;24.40;68.00;;;;;;5073359;28;19920;-76
2021/09/08 10:55:53;;;;;;;;;;;24.20;67.30;;;;;;5074771;28;20275;-75
2021/09/08 10:58:19;;;;;;;;;;;24.10;68.80;;;;;;5074411;28;20401;-76
2021/09/08 11:00:46;;;;;;;;;;;24.30;69.30;;;;;;5075312;28;19921;-74
2021/09/08 11:03:14;;;;;;;;;;;24.40;68.20;;;;;;5071715;28;19912;-75
2021/09/08 11:05:45;;;;;;;;;;;24.50;67.10;;;;;;5070250;28;19988;-74
2021/09/08 11:08:18;;;;;;;;;;;24.50;63.60;;;;;;5073676;28;20457;-75
2021/09/08 11:10:44;;;;;;;;;;;24.50;64.20;;;;;;5076084;28;20410;-75
2021/09/08 11:13:09;;;;;;;;;;;24.50;64.80;;;;;;5075157;28;19972;-76
2021/09/08 11:15:36;;;;;;;;;;;24.50;63.80;;;;;;5081959;28;20029;-74
2021/09/08 11:18:11;;;;;;;;;;;24.60;63.40;;;;;;5083401;28;19916;-76
2021/09/08 11:20:37;;;;;;;;;;;24.70;62.10;;;;;;5080742;28;19964;-77
2021/09/08 11:23:07;;;;;;;;;;;24.60;62.50;;;;;;5075795;28;20362;-77
2021/09/08 11:25:34;;;;;;;;;;;24.70;64.00;;;;;;5074461;28;21200;-77
2021/09/08 11:27:59;;;;;;;;;;;24.90;63.80;;;;;;5075314;28;20071;-77
2021/09/08 11:30:29;;;;;;;;;;;24.90;62.10;;;;;;5077502;28;19967;-78
2021/09/08 11:32:58;;;;;;;;;;;24.80;62.30;;;;;;5076071;28;19917;-78
2021/09/08 11:35:34;;;;;;;;;;;24.90;63.30;;;;;;5076001;28;19920;-76
2021/09/08 11:38:00;;;;;;;;;;;25.00;63.60;;;;;;5075809;28;19976;-75
2021/09/08 11:40:27;;;;;;;;;;;25.10;63.50;;;;;;5077133;28;20270;-73
2021/09/08 11:42:52;;;;;;;;;;;25.30;62.70;;;;;;5073534;28;20050;-74
2021/09/08 11:45:30;;;;;;;;;;;25.40;60.80;;;;;;5077123;28;20011;-75
2021/09/08 11:47:56;;;;;;;;;;;25.30;61.40;;;;;;5080344;28;20303;-75
2021/09/08 11:50:22;;;;;;;;;;;25.30;62.20;;;;;;5077749;28;20565;-74
2021/09/08 11:52:54;;;;;;;;;;;25.40;60.80;;;;;;5080100;28;20350;-74
2021/09/08 11:55:24;;;;;;;;;;;25.40;60.80;;;;;;5078477;28;20306;-75
2021/09/08 11:57:49;;;;;;;;;;;25.50;60.80;;;;;;5080516;28;19927;-74
2021/09/08 12:00:15;;;;;;;;;;;25.60;61.20;;;;;;5076068;28;19915;-74
2021/09/08 12:02:40;;;;;;;;;;;25.70;60.50;;;;;;5076186;28;19920;-77
2021/09/08 12:05:06;;;;;;;;;;;25.90;59.50;;;;;;5079140;28;19978;-73
2021/09/08 12:07:31;;;;;;;;;;;25.90;60.20;;;;;;5079962;28;19915;-74
2021/09/08 12:09:57;;;;;;;;;;;25.90;57.80;;;;;;5077792;28;19913;-74
2021/09/08 12:12:24;;;;;;;;;;;25.80;59.10;;;;;;5102851;22;19963;-73
2021/09/08 12:14:50;;;;;;;;;;;25.80;59.10;;;;;;5079620;28;19920;-73
2021/09/08 12:17:15;;;;;;;;;;;25.90;57.30;;;;;;5086853;28;20360;-72
2021/09/08 12:19:45;;;;;;;;;;;25.80;58.90;;;;;;5077128;28;19924;-71
2021/09/08 12:22:13;;;;;;;;;;;25.70;56.90;;;;;;5083384;28;20366;-71
2021/09/08 12:24:46;;;;;;;;;;;25.80;57.80;;;;;;5079740;28;20448;-72
2021/09/08 12:27:27;;;;;;;;;;;25.80;58.60;;;;;;5077715;28;20235;-72
2021/09/08 12:29:53;;;;;;;;;;;25.90;58.80;;;;;;5080538;28;19912;-73
2021/09/08 12:32:19;;;;;;;;;;;26.10;58.80;;;;;;5078975;28;20302;-72
2021/09/08 12:34:45;;;;;;;;;;;26.10;59.20;;;;;;5077108;28;20061;-74
2021/09/08 12:37:11;;;;;;;;;;;26.30;58.50;;;;;;5074855;28;19912;-71
2021/09/08 12:39:44;;;;;;;;;;;26.20;58.00;;;;;;5079804;28;19939;-72
2021/09/08 12:42:16;;;;;;;;;;;26.10;57.70;;;;;;5079069;28;19923;-72
2021/09/08 12:44:42;;;;;;;;;;;26.00;57.40;;;;;;5062471;28;19912;-75
2021/09/08 12:47:18;;;;;;;;;;;26.10;58.50;;;;;;5079707;28;19957;-75
2021/09/08 12:49:44;;;;;;;;;;;26.20;57.50;;;;;;5078633;28;19916;-75
2021/09/08 12:52:11;;;;;;;;;;;26.10;56.10;;;;;;5074147;28;20070;-75
2021/09/08 12:54:37;;;;;;;;;;;26.00;57.70;;;;;;5078935;28;19920;-76
2021/09/08 12:57:03;;;;;;;;;;;26.10;57.60;;;;;;5078062;28;19953;-74
2021/09/08 12:59:30;;;;;;;;;;;26.10;56.80;;;;;;5075915;28;20390;-75
2021/09/08 13:01:56;;;;;;;;;;;26.20;57.30;;;;;;5079796;28;20324;-72
2021/09/08 13:04:22;;;;;;;;;;;26.30;56.60;;;;;;5076991;28;19924;-74
2021/09/08 13:06:47;;;;;;;;;;;26.40;54.50;;;;;;5078357;28;20018;-73
2021/09/08 13:09:13;;;;;;;;;;;26.40;55.10;;;;;;5075712;28;19913;-75
2021/09/08 13:11:38;;;;;;;;;;;26.30;54.20;;;;;;5077880;28;19920;-75
2021/09/08 13:14:04;;;;;;;;;;;26.30;54.30;;;;;;5076237;28;20126;-76
2021/09/08 13:16:31;;;;;;;;;;;26.30;54.70;;;;;;5076903;28;19916;-71
2021/09/08 13:18:56;;;;;;;;;;;26.30;54.00;;;;;;5078024;28;19920;-71
2021/09/08 13:21:22;;;;;;;;;;;26.40;54.80;;;;;;5079445;28;20477;-73
2021/09/08 13:23:47;;;;;;;;;;;26.40;54.10;;;;;;5078299;28;19923;-72
2021/09/08 13:26:13;;;;;;;;;;;26.40;53.20;;;;;;5076271;28;19920;-72
2021/09/08 13:28:38;;;;;;;;;;;26.40;52.30;;;;;;5075730;28;19923;-72
2021/09/08 13:31:04;;;;;;;;;;;26.40;52.40;;;;;;5076201;28;19912;-72
2021/09/08 13:33:29;;;;;;;;;;;26.40;52.30;;;;;;5077482;28;19923;-72
2021/09/08 13:35:54;;;;;;;;;;;26.30;53.00;;;;;;5078042;28;19919;-72
2021/09/08 13:38:20;;;;;;;;;;;26.40;53.60;;;;;;5077623;28;20459;-72
2021/09/08 13:40:45;;;;;;;;;;;26.60;54.10;;;;;;5079683;28;19960;-73
2021/09/08 13:43:11;;;;;;;;;;;26.60;53.80;;;;;;5078279;28;20267;-73
2021/09/08 13:45:36;;;;;;;;;;;26.80;53.70;;;;;;5078677;28;19927;-75
2021/09/08 13:48:02;;;;;;;;;;;26.80;52.70;;;;;;5076082;28;19913;-75
2021/09/08 13:50:27;;;;;;;;;;;26.80;53.70;;;;;;5077336;28;20367;-75
2021/09/08 13:52:53;;;;;;;;;;;26.90;53.60;;;;;;5079100;28;20205;-76
2021/09/08 13:55:18;;;;;;;;;;;26.90;53.40;;;;;;5078177;28;19920;-75
2021/09/08 13:57:44;;;;;;;;;;;26.90;51.30;;;;;;5077995;28;20367;-75
2021/09/08 14:00:09;;;;;;;;;;;26.70;52.50;;;;;;5073539;28;19970;-76
2021/09/08 14:02:35;;;;;;;;;;;26.60;53.20;;;;;;5078555;28;19916;-74
2021/09/08 14:05:00;;;;;;;;;;;26.60;52.30;;;;;;5075769;28;19918;-75
2021/09/08 14:07:27;;;;;;;;;;;26.40;51.40;;;;;;5076862;28;19939;-75
2021/09/08 14:09:52;;;;;;;;;;;26.30;51.40;;;;;;5078105;28;20018;-75